createdAt,value
2023-04-01T00:02:01.964Z,0.73
2023-04-01T00:04:28.364Z,1.17
2023-04-01T00:06:54.615Z,1.00
2023-04-01T00:09:20.822Z,1.07
2023-04-01T00:11:47.047Z,1.03
2023-04-01T00:14:13.233Z,1.03
2023-04-01T00:16:40.232Z,0.93
2023-04-01T00:19:06.452Z,1.10
2023-04-01T00:21:32.776Z,0.90
2023-04-01T00:23:59.647Z,0.97
2023-04-01T00:26:25.905Z,0.90
2023-04-01T00:28:52.323Z,0.80
2023-04-01T00:31:18.927Z,0.70
2023-04-01T00:33:45.995Z,0.97
2023-04-01T00:36:13.581Z,0.53
2023-04-01T00:38:40.708Z,0.80
2023-04-01T00:41:07.216Z,0.83
2023-04-01T00:43:33.976Z,0.90
2023-04-01T00:46:00.454Z,0.70
2023-04-01T00:48:29.255Z,0.77
2023-04-01T00:50:59.127Z,1.20
2023-04-01T00:53:25.371Z,0.80
2023-04-01T00:55:54.942Z,0.70
2023-04-01T00:58:22.465Z,0.80
2023-04-01T01:00:49.935Z,1.00
2023-04-01T01:03:16.223Z,1.10
2023-04-01T01:06:11.970Z,0.97
2023-04-01T01:08:57.469Z,0.77
2023-04-01T01:11:33.589Z,0.80
2023-04-01T01:14:09.528Z,0.70
2023-04-01T01:16:39.576Z,0.80
2023-04-01T01:19:10.726Z,0.83
2023-04-01T01:21:53.035Z,0.90
2023-04-01T01:24:29.310Z,0.90
2023-04-01T01:27:03.477Z,1.00
2023-04-01T01:29:43.281Z,1.00
2023-04-01T01:32:18.714Z,1.03
2023-04-01T01:34:50.400Z,1.13
2023-04-01T01:37:18.618Z,0.93
2023-04-01T01:39:49.091Z,1.03
2023-04-01T01:42:17.581Z,0.87
2023-04-01T01:44:45.286Z,0.97
2023-04-01T01:47:11.864Z,1.10
2023-04-01T01:49:39.443Z,0.90
2023-04-01T01:52:05.613Z,0.80
2023-04-01T01:54:32.425Z,1.00
2023-04-01T01:57:05.317Z,0.80
2023-04-01T01:59:32.983Z,0.90
2023-04-01T02:01:59.908Z,0.80
2023-04-01T02:04:27.315Z,0.60
2023-04-01T02:06:57.377Z,0.60
2023-04-01T02:09:23.694Z,0.67
2023-04-01T02:11:52.461Z,0.80
2023-04-01T02:14:21.285Z,0.77
2023-04-01T02:16:52.746Z,1.27
2023-04-01T02:19:22.771Z,0.87
2023-04-01T02:21:50.320Z,0.80
2023-04-01T02:24:16.745Z,0.60
2023-04-01T02:26:43.893Z,0.43
2023-04-01T02:29:12.395Z,0.87
2023-04-01T02:31:38.758Z,0.63
2023-04-01T02:34:05.051Z,0.80
2023-04-01T02:36:31.415Z,0.70
2023-04-01T02:39:02.241Z,0.60
2023-04-01T02:41:28.429Z,1.07
2023-04-01T02:43:55.213Z,1.00
2023-04-01T02:46:24.708Z,0.77
2023-04-01T02:48:50.980Z,1.00
2023-04-01T02:51:18.387Z,0.83
2023-04-01T02:53:44.730Z,0.67
2023-04-01T02:56:10.908Z,1.10
2023-04-01T02:58:37.084Z,0.90
2023-04-01T03:01:03.328Z,1.00
2023-04-01T03:03:30.244Z,0.70
2023-04-01T03:05:58.780Z,0.70
2023-04-01T03:08:25.070Z,0.77
2023-04-01T03:10:51.265Z,0.63
2023-04-01T03:13:17.511Z,0.83
2023-04-01T03:15:43.660Z,0.60
2023-04-01T03:18:09.898Z,0.80
2023-04-01T03:20:36.696Z,0.80
2023-04-01T03:23:02.958Z,0.83
2023-04-01T03:25:30.947Z,0.70
2023-04-01T03:27:59.729Z,0.70
2023-04-01T03:30:26.081Z,0.90
2023-04-01T03:32:52.640Z,0.80
2023-04-01T03:35:19.108Z,0.50
2023-04-01T03:37:45.951Z,0.60
2023-04-01T03:40:12.555Z,0.53
2023-04-01T03:42:42.043Z,0.50
2023-04-01T03:45:09.402Z,0.80
2023-04-01T03:47:35.696Z,0.60
2023-04-01T03:50:02.179Z,0.63
2023-04-01T03:52:28.355Z,0.80
2023-04-01T03:54:55.300Z,0.60
2023-04-01T03:57:21.559Z,0.90
2023-04-01T03:59:47.721Z,0.70
2023-04-01T04:02:14.020Z,0.70
2023-04-01T04:04:41.400Z,0.60
2023-04-01T04:07:07.639Z,1.37
2023-04-01T04:09:33.870Z,1.17
2023-04-01T04:12:01.544Z,1.07
2023-04-01T04:14:27.904Z,1.00
2023-04-01T04:16:54.130Z,1.30
2023-04-01T04:19:20.375Z,1.20
2023-04-01T04:21:46.614Z,1.00
2023-04-01T04:24:12.773Z,1.20
2023-04-01T04:26:38.884Z,1.10
2023-04-01T04:29:05.723Z,1.20
2023-04-01T04:31:32.037Z,0.90
2023-04-01T04:33:59.543Z,1.07
2023-04-01T04:36:25.808Z,0.80
2023-04-01T04:38:52.198Z,1.00
2023-04-01T04:41:19.640Z,0.97
2023-04-01T04:43:50.462Z,0.80
2023-04-01T04:46:17.511Z,0.90
2023-04-01T04:48:44.076Z,0.90
2023-04-01T04:51:13.873Z,1.10
2023-04-01T04:53:40.180Z,1.07
2023-04-01T04:56:06.762Z,1.00
2023-04-01T04:58:33.850Z,1.10
2023-04-01T05:01:00.163Z,1.20
2023-04-01T05:03:27.129Z,1.47
2023-04-01T05:05:54.173Z,1.17
2023-04-01T05:08:20.482Z,1.40
2023-04-01T05:10:46.788Z,1.20
2023-04-01T05:13:13.130Z,1.90
2023-04-01T05:15:41.988Z,1.37
2023-04-01T05:18:08.222Z,1.57
2023-04-01T05:20:35.162Z,1.50
2023-04-01T05:23:01.801Z,1.13
2023-04-01T05:25:28.327Z,1.50
2023-04-01T05:27:54.488Z,1.53
2023-04-01T05:30:21.058Z,1.10
2023-04-01T05:32:47.277Z,1.40
2023-04-01T05:35:13.607Z,1.07
2023-04-01T05:37:42.350Z,1.00
2023-04-01T05:40:10.019Z,1.00
2023-04-01T05:42:37.653Z,1.00
2023-04-01T05:45:05.442Z,1.30
2023-04-01T05:47:31.624Z,1.00
2023-04-01T05:49:57.757Z,1.40
2023-04-01T05:52:24.861Z,1.27
2023-04-01T05:54:51.831Z,1.20
2023-04-01T05:57:18.010Z,1.20
2023-04-01T05:59:44.778Z,1.63
2023-04-01T06:02:11.029Z,2.00
2023-04-01T06:04:39.272Z,1.80
2023-04-01T06:07:11.172Z,1.57
2023-04-01T06:09:37.489Z,1.50
2023-04-01T06:12:17.084Z,1.57
2023-04-01T06:14:49.625Z,1.53
2023-04-01T06:17:26.057Z,1.50
2023-04-01T06:19:57.089Z,1.70
2023-04-01T06:22:32.325Z,1.43
2023-04-01T06:25:10.168Z,1.57
2023-04-01T06:27:50.441Z,1.70
2023-04-01T06:30:35.907Z,1.77
2023-04-01T06:33:15.534Z,1.87
2023-04-01T06:35:52.065Z,1.60
2023-04-01T06:38:29.759Z,1.73
2023-04-01T06:41:22.619Z,1.70
2023-04-01T06:43:56.051Z,1.60
2023-04-01T06:46:31.524Z,1.53
2023-04-01T06:49:12.953Z,1.97
2023-04-01T06:51:44.351Z,1.70
2023-04-01T06:54:14.630Z,2.47
2023-04-01T06:56:43.062Z,1.80
2023-04-01T06:59:13.562Z,1.80
2023-04-01T07:01:41.906Z,1.23
2023-04-01T07:04:13.898Z,1.43
2023-04-01T07:06:44.832Z,1.23
2023-04-01T07:09:14.959Z,1.50
2023-04-01T07:11:41.442Z,1.47
2023-04-01T07:14:14.670Z,1.50
2023-04-01T07:16:42.766Z,1.60
2023-04-01T07:19:13.362Z,1.40
2023-04-01T07:21:42.626Z,1.50
2023-04-01T07:24:16.008Z,1.70
2023-04-01T07:26:42.272Z,1.37
2023-04-01T07:29:11.129Z,1.27
2023-04-01T07:32:06.982Z,1.50
2023-04-01T07:34:39.186Z,1.50
2023-04-01T07:37:08.394Z,1.40
2023-04-01T07:39:40.913Z,1.80
2023-04-01T07:42:12.075Z,1.77
2023-04-01T07:44:43.078Z,1.83
2023-04-01T07:47:20.015Z,1.77
2023-04-01T07:49:54.494Z,1.73
2023-04-01T07:52:26.856Z,1.67
2023-04-01T07:54:58.091Z,1.63
2023-04-01T07:57:28.335Z,2.10
2023-04-01T07:59:59.674Z,1.87
2023-04-01T08:02:33.954Z,1.80
2023-04-01T08:05:07.093Z,2.00
2023-04-01T08:07:38.815Z,1.93
2023-04-01T08:10:12.399Z,2.10
2023-04-01T08:12:45.873Z,2.23
2023-04-01T08:15:22.182Z,2.40
2023-04-01T08:17:58.502Z,2.10
2023-04-01T08:20:30.141Z,2.30
2023-04-01T08:22:59.777Z,2.20
2023-04-01T08:25:27.662Z,2.00
2023-04-01T08:27:56.518Z,2.00
2023-04-01T08:30:25.131Z,2.07
2023-04-01T08:32:55.519Z,2.40
2023-04-01T08:35:28.038Z,2.10
2023-04-01T08:37:56.034Z,2.70
2023-04-01T08:40:40.333Z,2.20
2023-04-01T08:43:10.237Z,2.00
2023-04-01T08:46:03.683Z,2.13
2023-04-01T08:49:02.337Z,1.90
2023-04-01T08:52:01.280Z,1.90
2023-04-01T08:54:59.582Z,2.03
2023-04-01T08:57:35.861Z,2.07
2023-04-01T09:00:12.239Z,1.87
2023-04-01T09:02:50.755Z,2.20
2023-04-01T09:05:32.671Z,2.40
2023-04-01T09:08:08.987Z,2.57
2023-04-01T09:10:43.755Z,2.60
2023-04-01T09:13:19.473Z,2.87
2023-04-01T09:16:30.243Z,2.70
2023-04-01T09:19:16.125Z,3.20
2023-04-01T09:22:19.342Z,2.77
2023-04-01T09:25:09.579Z,3.40
2023-04-01T09:27:44.399Z,2.90
2023-04-01T09:30:55.133Z,2.70
2023-04-01T09:34:04.850Z,2.60
2023-04-01T09:36:40.365Z,2.60
2023-04-01T09:39:21.423Z,2.70
2023-04-01T09:41:58.846Z,2.90
2023-04-01T09:44:33.107Z,2.70
2023-04-01T09:47:08.749Z,3.53
2023-04-01T09:49:48.610Z,3.67
2023-04-01T09:52:32.592Z,3.67
2023-04-01T09:55:20.131Z,4.60
2023-04-01T09:58:12.274Z,4.53
2023-04-01T10:00:59.521Z,5.63
2023-04-01T10:04:02.027Z,5.43
2023-04-01T10:06:48.558Z,5.40
2023-04-01T10:09:56.481Z,5.70
2023-04-01T10:12:42.416Z,6.03
2023-04-01T10:15:46.938Z,5.53
2023-04-01T10:18:41.550Z,5.53
2023-04-01T10:21:26.309Z,5.40
2023-04-01T10:24:04.165Z,4.00
2023-04-01T10:27:03.648Z,5.20
2023-04-01T10:30:00.514Z,5.07
2023-04-01T10:33:06.184Z,4.73
2023-04-01T10:35:54.715Z,4.30
2023-04-01T10:38:44.962Z,3.77
2023-04-01T10:41:55.512Z,3.77
2023-04-01T10:44:41.411Z,3.17
2023-04-01T10:47:55.353Z,2.77
2023-04-01T10:50:26.155Z,2.70
2023-04-01T10:53:22.278Z,2.90
2023-04-01T10:56:10.605Z,2.70
2023-04-01T10:59:19.454Z,2.70
2023-04-01T11:02:32.543Z,2.70
2023-04-01T11:05:21.136Z,2.50
2023-04-01T11:08:07.282Z,3.03
2023-04-01T11:11:04.617Z,3.07
2023-04-01T11:14:00.587Z,3.20
2023-04-01T11:16:45.887Z,4.00
2023-04-01T11:20:03.183Z,3.80
2023-04-01T11:22:52.399Z,4.13
2023-04-01T11:25:37.177Z,4.13
2023-04-01T11:28:38.745Z,4.90
2023-04-01T11:31:17.318Z,4.40
2023-04-01T11:33:47.485Z,4.63
2023-04-01T11:36:23.001Z,4.53
2023-04-01T11:38:57.636Z,4.80
2023-04-01T11:41:31.792Z,5.07
2023-04-01T11:44:12.575Z,4.77
2023-04-01T11:46:47.400Z,5.37
2023-04-01T11:49:39.453Z,4.97
2023-04-01T11:52:15.671Z,4.97
2023-04-01T11:55:15.679Z,4.50
2023-04-01T11:57:52.599Z,5.00
2023-04-01T12:00:45.770Z,5.43
2023-04-01T12:03:26.650Z,5.53
2023-04-01T12:05:55.673Z,6.03
2023-04-01T12:08:31.301Z,6.00
2023-04-01T12:11:02.004Z,5.73
2023-04-01T12:13:35.443Z,5.87
2023-04-01T12:16:14.564Z,6.27
2023-04-01T12:18:43.347Z,5.77
2023-04-01T12:21:17.943Z,5.47
2023-04-01T12:23:59.048Z,6.13
2023-04-01T12:26:44.736Z,5.73
2023-04-01T12:29:37.854Z,6.30
2023-04-01T12:32:10.275Z,6.07
2023-04-01T12:34:49.660Z,6.27
2023-04-01T12:37:19.572Z,6.13
2023-04-01T12:39:56.354Z,6.97
2023-04-01T12:42:36.652Z,6.73
2023-04-01T12:45:16.897Z,6.80
2023-04-01T12:47:54.998Z,7.00
2023-04-01T12:50:43.049Z,6.13
2023-04-01T12:53:24.527Z,5.93
2023-04-01T12:55:52.765Z,6.60
2023-04-01T12:58:55.564Z,6.60
2023-04-01T13:01:46.288Z,5.67
2023-04-01T13:04:30.891Z,6.10
2023-04-01T13:07:22.988Z,5.40
2023-04-01T13:09:55.411Z,5.97
2023-04-01T13:12:35.185Z,5.93
2023-04-01T13:15:16.463Z,5.50
2023-04-01T13:17:51.011Z,5.07
2023-04-01T13:20:23.936Z,5.63
2023-04-01T13:22:58.875Z,5.23
2023-04-01T13:25:30.839Z,5.90
2023-04-01T13:28:04.477Z,5.03
2023-04-01T13:30:35.918Z,5.33
2023-04-01T13:33:07.137Z,6.10
2023-04-01T13:35:39.832Z,5.43
2023-04-01T13:38:32.471Z,4.63
2023-04-01T13:41:03.904Z,5.07
2023-04-01T13:43:32.928Z,4.70
2023-04-01T13:46:10.777Z,4.77
2023-04-01T13:49:02.788Z,4.53
2023-04-01T13:51:55.441Z,4.90
2023-04-01T13:54:49.200Z,4.67
2023-04-01T13:57:24.802Z,4.40
2023-04-01T14:00:01.279Z,5.17
2023-04-01T14:02:45.806Z,4.50
2023-04-01T14:05:41.840Z,4.53
2023-04-01T14:08:18.593Z,4.27
2023-04-01T14:10:50.047Z,4.70
2023-04-01T14:13:19.667Z,4.70
2023-04-01T14:16:13.773Z,4.30
2023-04-01T14:18:48.075Z,5.07
2023-04-01T14:21:20.918Z,5.07
2023-04-01T14:23:58.873Z,5.30
2023-04-01T14:26:58.524Z,5.23
2023-04-01T14:29:28.158Z,5.20
2023-04-01T14:32:05.870Z,4.40
2023-04-01T14:34:41.012Z,4.80
2023-04-01T14:37:16.474Z,4.33
2023-04-01T14:40:34.143Z,4.20
2023-04-01T14:43:16.994Z,4.07
2023-04-01T14:45:50.400Z,3.80
2023-04-01T14:48:24.596Z,4.20
2023-04-01T14:50:53.067Z,3.40
2023-04-01T14:53:28.118Z,3.10
2023-04-01T14:55:55.735Z,3.20
2023-04-01T14:58:25.447Z,3.00
2023-04-01T15:01:00.496Z,3.30
2023-04-01T15:03:30.470Z,3.40
2023-04-01T15:06:09.979Z,3.00
2023-04-01T15:08:44.106Z,2.90
2023-04-01T15:11:24.982Z,3.43
2023-04-01T15:14:16.462Z,3.30
2023-04-01T15:16:50.464Z,3.30
2023-04-01T15:19:23.900Z,3.30
2023-04-01T15:22:01.236Z,3.40
2023-04-01T15:24:39.980Z,3.83
2023-04-01T15:27:19.759Z,4.60
2023-04-01T15:30:04.826Z,4.00
2023-04-01T15:32:41.609Z,4.87
2023-04-01T15:35:17.976Z,4.60
2023-04-01T15:37:50.613Z,4.50
2023-04-01T15:40:21.332Z,4.40
2023-04-01T15:43:00.528Z,4.77
2023-04-01T15:45:35.585Z,4.87
2023-04-01T15:48:02.980Z,5.23
2023-04-01T15:51:00.096Z,4.67
2023-04-01T15:53:44.820Z,4.20
2023-04-01T15:56:19.159Z,4.40
2023-04-01T15:58:55.468Z,4.80
2023-04-01T16:01:38.835Z,4.13
2023-04-01T16:04:17.869Z,3.90
2023-04-01T16:06:57.370Z,3.83
2023-04-01T16:09:32.114Z,4.17
2023-04-01T16:12:05.041Z,4.43
2023-04-01T16:14:39.939Z,4.17
2023-04-01T16:17:17.626Z,4.70
2023-04-01T16:19:52.270Z,4.20
2023-04-01T16:22:22.017Z,4.30
2023-04-01T16:24:52.653Z,4.17
2023-04-01T16:27:26.166Z,4.67
2023-04-01T16:29:56.486Z,5.00
2023-04-01T16:32:30.333Z,5.00
2023-04-01T16:35:04.823Z,5.20
2023-04-01T16:37:34.898Z,4.50
2023-04-01T16:40:13.454Z,4.97
2023-04-01T16:42:44.065Z,4.53
2023-04-01T16:45:20.185Z,4.60
2023-04-01T16:47:50.133Z,4.37
2023-04-01T16:50:20.416Z,3.50
2023-04-01T16:53:01.171Z,4.27
2023-04-01T16:55:36.367Z,4.00
2023-04-01T16:58:03.300Z,4.27
2023-04-01T17:00:32.342Z,4.10
2023-04-01T17:03:12.591Z,4.70
2023-04-01T17:05:44.914Z,4.77
2023-04-01T17:08:18.604Z,4.57
2023-04-01T17:10:50.297Z,4.83
2023-04-01T17:13:35.656Z,5.10
2023-04-01T17:16:22.228Z,5.10
2023-04-01T17:18:54.599Z,5.30
2023-04-01T17:21:27.699Z,5.23
2023-04-01T17:24:01.147Z,4.80
2023-04-01T17:26:33.640Z,6.93
2023-04-01T17:29:06.113Z,5.10
2023-04-01T17:31:42.250Z,4.50
2023-04-01T17:34:29.948Z,4.60
2023-04-01T17:37:09.607Z,4.50
2023-04-01T17:39:48.627Z,4.30
2023-04-01T17:42:16.385Z,4.73
2023-04-01T17:44:52.140Z,5.33
2023-04-01T17:47:30.224Z,4.50
2023-04-01T17:50:02.770Z,4.40
2023-04-01T17:52:31.905Z,4.60
2023-04-01T17:55:15.986Z,4.60
2023-04-01T17:57:47.673Z,4.60
2023-04-01T18:00:25.480Z,4.50
2023-04-01T18:02:59.625Z,4.67
2023-04-01T18:05:32.970Z,4.30
2023-04-01T18:08:22.251Z,4.17
2023-04-01T18:11:01.929Z,4.13
2023-04-01T18:13:55.229Z,3.80
2023-04-01T18:16:35.536Z,3.63
2023-04-01T18:19:05.816Z,4.50
2023-04-01T18:21:40.591Z,4.73
2023-04-01T18:24:14.725Z,4.50
2023-04-01T18:26:43.907Z,5.13
2023-04-01T18:29:14.226Z,4.60
2023-04-01T18:31:44.659Z,4.30
2023-04-01T18:34:16.161Z,4.77
2023-04-01T18:36:45.803Z,4.60
2023-04-01T18:39:15.555Z,4.47
2023-04-01T18:41:51.072Z,4.63
2023-04-01T18:44:27.598Z,4.80
2023-04-01T18:47:01.379Z,5.00
2023-04-01T18:49:31.041Z,4.53
2023-04-01T18:51:59.640Z,5.07
2023-04-01T18:54:28.229Z,5.37
2023-04-01T18:57:03.371Z,5.00
2023-04-01T18:59:35.016Z,5.37
2023-04-01T19:02:15.208Z,5.33
2023-04-01T19:04:44.683Z,5.70
2023-04-01T19:07:40.558Z,6.23
2023-04-01T19:10:15.097Z,6.07
2023-04-01T19:12:47.800Z,5.77
2023-04-01T19:15:26.793Z,5.23
2023-04-01T19:18:03.447Z,5.60
2023-04-01T19:20:34.167Z,5.53
2023-04-01T19:23:39.294Z,5.30
2023-04-01T19:26:06.734Z,4.90
2023-04-01T19:28:42.229Z,6.20
2023-04-01T19:31:15.502Z,5.50
2023-04-01T19:33:53.191Z,6.37
2023-04-01T19:36:27.865Z,6.80
2023-04-01T19:38:56.446Z,5.90
2023-04-01T19:41:35.366Z,5.97
2023-04-01T19:44:10.071Z,5.30
2023-04-01T19:46:39.045Z,5.00
2023-04-01T19:49:19.488Z,4.93
2023-04-01T19:51:51.624Z,4.90
2023-04-01T19:54:25.574Z,5.73
2023-04-01T19:57:01.554Z,6.13
2023-04-01T19:59:33.804Z,6.37
2023-04-01T20:02:04.477Z,6.40
2023-04-01T20:04:35.470Z,7.23
2023-04-01T20:07:07.263Z,6.90
2023-04-01T20:09:51.070Z,7.27
2023-04-01T20:12:26.318Z,9.07
2023-04-01T20:14:55.079Z,8.40
2023-04-01T20:17:22.599Z,8.53
2023-04-01T20:19:55.967Z,8.47
2023-04-01T20:22:33.721Z,7.90
2023-04-01T20:25:06.190Z,7.80
2023-04-01T20:27:33.864Z,7.30
2023-04-01T20:30:24.857Z,7.60
2023-04-01T20:33:01.361Z,7.63
2023-04-01T20:35:38.196Z,8.47
2023-04-01T20:38:24.792Z,7.27
2023-04-01T20:40:52.632Z,6.97
2023-04-01T20:43:41.822Z,7.00
2023-04-01T20:46:14.973Z,6.93
2023-04-01T20:49:22.825Z,6.80
2023-04-01T20:51:55.148Z,7.57
2023-04-01T20:54:42.833Z,7.00
2023-04-01T20:57:12.153Z,6.70
2023-04-01T21:00:03.501Z,6.87
2023-04-01T21:02:43.805Z,7.07
2023-04-01T21:05:28.911Z,7.23
2023-04-01T21:07:58.686Z,7.03
2023-04-01T21:10:34.741Z,6.83
2023-04-01T21:13:07.325Z,6.90
2023-04-01T21:15:42.321Z,7.83
2023-04-01T21:18:23.232Z,8.50
2023-04-01T21:21:08.976Z,7.87
2023-04-01T21:24:14.002Z,6.93
2023-04-01T21:26:50.169Z,6.00
2023-04-01T21:29:30.447Z,6.40
2023-04-01T21:32:09.195Z,5.60
2023-04-01T21:34:53.175Z,5.53
2023-04-01T21:37:32.018Z,5.47
2023-04-01T21:40:12.567Z,5.47
2023-04-01T21:42:42.026Z,4.67
2023-04-01T21:45:17.920Z,4.80
2023-04-01T21:48:19.343Z,4.80
2023-04-01T21:50:50.332Z,5.27
2023-04-01T21:54:07.390Z,4.90
2023-04-01T21:57:19.029Z,4.20
2023-04-01T22:00:02.004Z,4.40
2023-04-01T22:02:48.443Z,4.43
2023-04-01T22:05:17.293Z,4.07
2023-04-01T22:07:53.029Z,4.30
2023-04-01T22:10:26.031Z,4.40
2023-04-01T22:12:56.068Z,4.00
2023-04-01T22:15:29.745Z,4.43
2023-04-01T22:18:03.440Z,4.90
2023-04-01T22:20:34.320Z,4.47
2023-04-01T22:23:13.337Z,4.50
2023-04-01T22:25:44.636Z,4.70
2023-04-01T22:28:13.598Z,5.47
2023-04-01T22:30:42.929Z,5.63
2023-04-01T22:33:12.768Z,6.10
2023-04-01T22:35:43.991Z,5.90
2023-04-01T22:38:19.494Z,6.10
2023-04-01T22:40:49.806Z,6.20
2023-04-01T22:43:21.441Z,5.63
2023-04-01T22:46:13.246Z,6.07
2023-04-01T22:48:42.492Z,6.40
2023-04-01T22:51:15.880Z,6.60
2023-04-01T22:54:00.800Z,5.97
2023-04-01T22:56:31.079Z,6.53
2023-04-01T22:59:01.058Z,6.87
2023-04-01T23:01:31.011Z,7.20
2023-04-01T23:03:59.708Z,6.27
2023-04-01T23:06:27.827Z,6.93
2023-04-01T23:09:12.518Z,7.80
2023-04-01T23:11:48.173Z,8.10
2023-04-01T23:14:41.890Z,7.80
2023-04-01T23:17:39.897Z,7.93
2023-04-01T23:20:17.298Z,7.80
2023-04-01T23:22:51.068Z,8.10
2023-04-01T23:25:25.548Z,8.50
2023-04-01T23:27:55.399Z,7.47
2023-04-01T23:30:47.702Z,8.13
2023-04-01T23:33:21.719Z,8.40
2023-04-01T23:35:48.249Z,8.23
2023-04-01T23:38:14.709Z,8.10
2023-04-01T23:40:41.346Z,7.50
2023-04-01T23:43:14.025Z,8.23
2023-04-01T23:45:42.401Z,7.13
2023-04-01T23:48:11.931Z,7.20
2023-04-01T23:50:38.988Z,7.67
2023-04-01T23:53:12.996Z,7.23
2023-04-01T23:55:42.119Z,7.43
2023-04-01T23:58:15.603Z,7.40
